createdAt,value
2023-04-16T00:01:37.181Z,82.29
2023-04-16T00:04:04.071Z,83.41
2023-04-16T00:06:30.739Z,84.57
2023-04-16T00:08:57.257Z,86.58
2023-04-16T00:11:23.954Z,87.26
2023-04-16T00:13:50.505Z,85.00
2023-04-16T00:16:17.128Z,83.86
2023-04-16T00:18:43.763Z,83.77
2023-04-16T00:21:10.251Z,83.17
2023-04-16T00:23:38.351Z,82.87
2023-04-16T00:26:05.013Z,83.19
2023-04-16T00:28:31.512Z,82.06
2023-04-16T00:31:01.043Z,82.46
2023-04-16T00:33:27.602Z,83.00
2023-04-16T00:35:54.221Z,82.15
2023-04-16T00:38:20.731Z,82.28
2023-04-16T00:40:47.311Z,81.96
2023-04-16T00:43:23.107Z,82.19
2023-04-16T00:45:50.356Z,83.25
2023-04-16T00:48:17.057Z,82.42
2023-04-16T00:50:43.719Z,83.84
2023-04-16T00:53:10.232Z,84.11
2023-04-16T00:55:37.006Z,83.34
2023-04-16T00:58:03.546Z,82.35
2023-04-16T01:00:30.065Z,80.87
2023-04-16T01:02:56.834Z,80.85
2023-04-16T01:05:30.185Z,80.90
2023-04-16T01:08:01.552Z,83.25
2023-04-16T01:10:29.257Z,84.66
2023-04-16T01:12:55.899Z,85.57
2023-04-16T01:15:22.462Z,85.37
2023-04-16T01:17:49.053Z,84.77
2023-04-16T01:20:15.649Z,83.39
2023-04-16T01:22:42.172Z,81.66
2023-04-16T01:25:12.078Z,80.85
2023-04-16T01:27:38.882Z,80.92
2023-04-16T01:30:06.064Z,81.92
2023-04-16T01:32:32.687Z,82.11
2023-04-16T01:35:00.731Z,81.30
2023-04-16T01:37:27.274Z,80.96
2023-04-16T01:39:53.824Z,80.36
2023-04-16T01:42:20.341Z,80.34
2023-04-16T01:44:47.470Z,80.00
2023-04-16T01:47:14.020Z,80.19
2023-04-16T01:49:40.579Z,80.04
2023-04-16T01:52:07.245Z,80.45
2023-04-16T01:54:33.791Z,79.49
2023-04-16T01:57:00.315Z,79.29
2023-04-16T01:59:26.859Z,80.65
2023-04-16T02:01:53.883Z,81.61
2023-04-16T02:04:20.502Z,80.80
2023-04-16T02:06:47.099Z,80.02
2023-04-16T02:09:13.634Z,79.81
2023-04-16T02:11:40.206Z,80.73
2023-04-16T02:14:06.737Z,80.40
2023-04-16T02:16:42.392Z,79.33
2023-04-16T02:21:58.733Z,79.61
2023-04-16T02:24:29.855Z,80.30
2023-04-16T02:26:57.472Z,80.87
2023-04-16T02:29:23.950Z,80.50
2023-04-16T02:31:50.483Z,81.60
2023-04-16T02:34:17.068Z,80.42
2023-04-16T02:36:43.579Z,80.42
2023-04-16T02:39:10.214Z,80.52
2023-04-16T02:41:36.858Z,81.39
2023-04-16T02:44:03.390Z,80.37
2023-04-16T02:46:29.924Z,79.99
2023-04-16T02:48:56.482Z,80.06
2023-04-16T02:51:22.999Z,80.00
2023-04-16T02:53:49.584Z,79.86
2023-04-16T02:56:16.085Z,78.72
2023-04-16T02:58:42.571Z,79.82
2023-04-16T03:01:09.162Z,80.00
2023-04-16T03:03:35.766Z,79.34
2023-04-16T03:06:02.431Z,79.14
2023-04-16T03:08:29.001Z,78.52
2023-04-16T03:10:55.506Z,78.03
2023-04-16T03:13:22.000Z,77.60
2023-04-16T03:15:49.466Z,78.13
2023-04-16T03:18:16.090Z,77.43
2023-04-16T03:20:42.642Z,77.74
2023-04-16T03:23:09.340Z,77.99
2023-04-16T03:25:35.863Z,78.27
2023-04-16T03:28:02.404Z,78.72
2023-04-16T03:30:28.874Z,78.54
2023-04-16T03:32:55.471Z,78.43
2023-04-16T03:35:22.079Z,78.41
2023-04-16T03:37:48.573Z,79.58
2023-04-16T03:40:15.200Z,78.97
2023-04-16T03:42:41.690Z,79.24
2023-04-16T03:45:08.495Z,82.06
2023-04-16T03:47:35.044Z,82.32
2023-04-16T03:50:01.642Z,82.63
2023-04-16T03:52:28.372Z,81.80
2023-04-16T03:54:54.852Z,80.95
2023-04-16T03:57:21.366Z,80.07
2023-04-16T03:59:47.851Z,80.89
2023-04-16T04:02:14.437Z,80.63
2023-04-16T04:04:41.219Z,80.16
2023-04-16T04:07:07.828Z,79.66
2023-04-16T04:09:34.330Z,78.77
2023-04-16T04:12:00.873Z,78.46
2023-04-16T04:14:27.382Z,78.49
2023-04-16T04:17:00.215Z,77.83
2023-04-16T04:19:26.747Z,78.38
2023-04-16T04:22:02.324Z,77.93
2023-04-16T04:24:28.902Z,77.50
2023-04-16T04:26:55.440Z,77.15
2023-04-16T04:29:22.005Z,77.08
2023-04-16T04:31:48.583Z,76.68
2023-04-16T04:34:15.194Z,76.79
2023-04-16T04:36:41.750Z,76.71
2023-04-16T04:39:14.240Z,76.27
2023-04-16T04:41:40.735Z,76.21
2023-04-16T04:44:31.661Z,75.96
2023-04-16T04:46:58.140Z,75.69
2023-04-16T04:49:24.663Z,76.28
2023-04-16T04:51:51.139Z,76.42
2023-04-16T04:54:17.648Z,76.75
2023-04-16T04:56:44.149Z,76.54
2023-04-16T04:59:11.263Z,77.11
2023-04-16T05:01:38.455Z,76.08
2023-04-16T05:04:05.149Z,76.57
2023-04-16T05:06:31.650Z,76.39
2023-04-16T05:08:58.359Z,76.63
2023-04-16T05:11:24.998Z,76.93
2023-04-16T05:13:51.475Z,76.75
2023-04-16T05:16:18.010Z,77.34
2023-04-16T05:18:44.550Z,77.26
2023-04-16T05:21:11.090Z,76.94
2023-04-16T05:23:37.794Z,76.84
2023-04-16T05:26:04.322Z,77.03
2023-04-16T05:28:31.062Z,76.75
2023-04-16T05:30:57.663Z,76.66
2023-04-16T05:33:24.160Z,76.88
2023-04-16T05:35:50.738Z,76.26
2023-04-16T05:38:17.231Z,76.21
2023-04-16T05:40:43.767Z,75.44
2023-04-16T05:43:10.351Z,75.60
2023-04-16T05:45:36.849Z,75.70
2023-04-16T05:48:03.388Z,75.46
2023-04-16T05:50:29.875Z,75.41
2023-04-16T05:52:56.445Z,74.79
2023-04-16T05:55:23.013Z,75.78
2023-04-16T05:57:49.471Z,75.11
2023-04-16T06:00:16.118Z,74.66
2023-04-16T06:02:42.789Z,74.21
2023-04-16T06:05:09.567Z,74.78
2023-04-16T06:07:36.066Z,74.60
2023-04-16T06:10:02.549Z,74.33
2023-04-16T06:12:29.074Z,74.65
2023-04-16T06:14:57.290Z,73.50
2023-04-16T06:17:23.801Z,73.60
2023-04-16T06:19:50.295Z,72.99
2023-04-16T06:22:16.827Z,73.80
2023-04-16T06:24:43.383Z,73.17
2023-04-16T06:27:09.906Z,72.28
2023-04-16T06:29:42.545Z,71.83
2023-04-16T06:32:09.384Z,72.32
2023-04-16T06:34:37.747Z,72.76
2023-04-16T06:37:04.285Z,73.43
2023-04-16T06:39:30.918Z,71.50
2023-04-16T06:41:57.440Z,71.79
2023-04-16T06:44:23.943Z,72.09
2023-04-16T06:46:51.063Z,71.70
2023-04-16T06:49:17.570Z,71.31
2023-04-16T06:51:44.204Z,70.90
2023-04-16T06:54:10.703Z,70.33
2023-04-16T06:56:37.223Z,71.03
2023-04-16T06:59:04.423Z,70.52
2023-04-16T07:01:30.964Z,69.72
2023-04-16T07:03:58.231Z,70.04
2023-04-16T07:06:24.961Z,70.07
2023-04-16T07:08:51.477Z,70.55
2023-04-16T07:11:18.778Z,70.49
2023-04-16T07:13:45.278Z,70.45
2023-04-16T07:16:11.819Z,70.58
2023-04-16T07:18:38.379Z,70.00
2023-04-16T07:21:04.896Z,71.55
2023-04-16T07:23:31.446Z,72.54
2023-04-16T07:25:58.151Z,73.62
2023-04-16T07:28:24.666Z,73.29
2023-04-16T07:30:51.285Z,73.57
2023-04-16T07:33:17.954Z,73.99
2023-04-16T07:35:44.537Z,73.51
2023-04-16T07:38:11.160Z,73.07
2023-04-16T07:40:37.873Z,72.12
2023-04-16T07:43:04.447Z,73.40
2023-04-16T07:45:30.958Z,73.05
2023-04-16T07:47:57.462Z,72.15
2023-04-16T07:50:24.885Z,71.64
2023-04-16T07:52:51.404Z,72.25
2023-04-16T07:55:20.150Z,71.84
2023-04-16T07:57:46.664Z,70.97
2023-04-16T08:00:14.037Z,70.80
2023-04-16T08:02:41.475Z,70.73
2023-04-16T08:05:08.112Z,68.50
2023-04-16T08:07:34.959Z,68.18
2023-04-16T08:10:01.579Z,67.57
2023-04-16T08:12:29.437Z,68.23
2023-04-16T08:14:58.397Z,68.22
2023-04-16T08:17:27.247Z,68.26
2023-04-16T08:19:56.132Z,68.41
2023-04-16T08:22:22.822Z,68.07
2023-04-16T08:24:49.338Z,67.75
2023-04-16T08:27:19.596Z,68.18
2023-04-16T08:29:47.543Z,66.90
2023-04-16T08:32:14.167Z,66.09
2023-04-16T08:34:41.781Z,66.81
2023-04-16T08:37:08.309Z,67.08
2023-04-16T08:39:34.839Z,66.56
2023-04-16T08:42:02.718Z,65.80
2023-04-16T08:44:35.100Z,65.62
2023-04-16T08:47:01.733Z,66.54
2023-04-16T08:49:28.535Z,66.17
2023-04-16T08:51:56.181Z,66.75
2023-04-16T08:54:37.122Z,66.47
2023-04-16T08:57:06.353Z,66.39
2023-04-16T08:59:33.424Z,66.35
2023-04-16T09:02:00.693Z,66.70
2023-04-16T09:04:27.972Z,67.41
2023-04-16T09:06:55.799Z,67.04
2023-04-16T09:09:22.720Z,67.89
2023-04-16T09:11:55.903Z,68.63
2023-04-16T09:14:22.445Z,69.06
2023-04-16T09:16:50.718Z,68.56
2023-04-16T09:19:17.292Z,68.87
2023-04-16T09:21:46.458Z,68.90
2023-04-16T09:24:12.934Z,69.08
2023-04-16T09:26:41.540Z,69.28
2023-04-16T09:29:08.386Z,68.88
2023-04-16T09:31:35.102Z,69.01
2023-04-16T09:34:07.246Z,67.42
2023-04-16T09:36:34.683Z,67.25
2023-04-16T09:39:01.974Z,66.61
2023-04-16T09:41:30.775Z,65.88
2023-04-16T09:43:58.110Z,65.79
2023-04-16T09:46:48.063Z,64.52
2023-04-16T09:49:16.196Z,64.77
2023-04-16T09:51:46.702Z,64.16
2023-04-16T09:54:13.243Z,63.86
2023-04-16T09:56:46.410Z,64.25
2023-04-16T09:59:20.034Z,65.02
2023-04-16T10:01:46.890Z,65.06
2023-04-16T10:04:13.722Z,64.29
2023-04-16T10:07:08.052Z,63.36
2023-04-16T10:09:38.329Z,63.58
2023-04-16T10:12:05.753Z,64.86
2023-04-16T10:14:32.655Z,64.69
2023-04-16T10:17:00.721Z,65.50
2023-04-16T10:19:27.669Z,66.08
2023-04-16T10:22:01.168Z,65.19
2023-04-16T10:24:31.842Z,64.69
2023-04-16T10:27:01.809Z,65.13
2023-04-16T10:29:30.211Z,64.97
2023-04-16T10:31:59.591Z,64.75
2023-04-16T10:34:26.506Z,64.03
2023-04-16T10:36:53.822Z,64.90
2023-04-16T10:39:24.452Z,64.29
2023-04-16T10:41:51.946Z,64.02
2023-04-16T10:44:19.281Z,64.56
2023-04-16T10:46:49.303Z,64.36
2023-04-16T10:49:25.143Z,63.33
2023-04-16T10:52:07.596Z,63.72
2023-04-16T10:54:36.062Z,64.00
2023-04-16T10:57:08.926Z,64.07
2023-04-16T10:59:37.166Z,65.06
2023-04-16T11:02:08.430Z,64.26
2023-04-16T11:04:40.272Z,63.73
2023-04-16T11:07:18.415Z,63.32
2023-04-16T11:10:03.509Z,64.48
2023-04-16T11:12:29.946Z,64.25
2023-04-16T11:15:04.900Z,63.61
2023-04-16T11:17:48.793Z,63.76
2023-04-16T11:20:20.561Z,63.37
2023-04-16T11:22:48.469Z,61.93
2023-04-16T11:25:22.987Z,61.93
2023-04-16T11:27:50.294Z,62.37
2023-04-16T11:30:19.459Z,62.11
2023-04-16T11:32:45.951Z,62.17
2023-04-16T11:35:19.088Z,61.76
2023-04-16T11:37:46.210Z,61.12
2023-04-16T11:40:12.825Z,60.37
2023-04-16T11:42:40.462Z,61.09
2023-04-16T11:45:09.041Z,61.25
2023-04-16T11:47:48.570Z,61.95
2023-04-16T11:50:19.814Z,61.03
2023-04-16T11:52:47.127Z,60.47
2023-04-16T11:55:13.867Z,60.05
2023-04-16T11:57:40.358Z,59.72
2023-04-16T12:00:09.248Z,57.49
2023-04-16T12:02:50.400Z,56.88
2023-04-16T12:05:28.456Z,57.52
2023-04-16T12:07:55.386Z,59.26
2023-04-16T12:10:22.254Z,59.74
2023-04-16T12:12:48.772Z,60.25
2023-04-16T12:15:15.296Z,59.46
2023-04-16T12:17:41.882Z,59.07
2023-04-16T12:20:13.745Z,58.66
2023-04-16T12:22:44.832Z,57.96
2023-04-16T12:25:12.704Z,57.88
2023-04-16T12:27:54.093Z,56.47
2023-04-16T12:30:22.830Z,56.36
2023-04-16T12:32:53.685Z,55.96
2023-04-16T12:35:30.774Z,53.60
2023-04-16T12:37:57.666Z,59.13
2023-04-16T12:40:24.444Z,59.39
2023-04-16T12:42:50.953Z,60.57
2023-04-16T12:45:17.455Z,59.75
2023-04-16T12:47:44.010Z,59.44
2023-04-16T12:50:10.790Z,60.43
2023-04-16T12:52:37.436Z,59.84
2023-04-16T12:55:04.106Z,60.39
2023-04-16T12:57:30.646Z,59.55
2023-04-16T12:59:57.851Z,57.46
2023-04-16T13:02:25.411Z,57.31
2023-04-16T13:04:52.702Z,56.91
2023-04-16T13:07:19.647Z,56.97
2023-04-16T13:09:46.785Z,55.81
2023-04-16T13:12:13.338Z,56.18
2023-04-16T13:14:39.952Z,56.13
2023-04-16T13:17:06.633Z,56.74
2023-04-16T13:19:33.147Z,57.14
2023-04-16T13:21:59.622Z,57.01
2023-04-16T13:24:28.444Z,57.62
2023-04-16T13:26:55.011Z,57.96
2023-04-16T13:29:21.641Z,57.51
2023-04-16T13:31:48.341Z,56.93
2023-04-16T13:34:15.053Z,58.37
2023-04-16T13:36:41.554Z,57.90
2023-04-16T13:39:08.174Z,58.56
2023-04-16T13:41:34.842Z,57.98
2023-04-16T13:44:01.348Z,58.69
2023-04-16T13:46:28.039Z,57.52
2023-04-16T13:48:54.806Z,59.00
2023-04-16T13:51:21.781Z,56.80
2023-04-16T13:53:48.578Z,58.10
2023-04-16T13:56:15.197Z,59.81
2023-04-16T13:58:41.714Z,58.47
2023-04-16T14:01:09.727Z,57.32
2023-04-16T14:03:36.403Z,58.76
2023-04-16T14:06:03.717Z,59.59
2023-04-16T14:08:30.535Z,59.72
2023-04-16T14:10:57.912Z,59.03
2023-04-16T14:13:25.224Z,59.16
2023-04-16T14:15:54.870Z,60.30
2023-04-16T14:18:21.424Z,60.98
2023-04-16T14:20:48.146Z,60.40
2023-04-16T14:23:14.677Z,61.76
2023-04-16T14:25:41.181Z,61.31
2023-04-16T14:28:07.868Z,61.03
2023-04-16T14:30:34.343Z,60.65
2023-04-16T14:33:00.896Z,63.61
2023-04-16T14:35:27.484Z,65.16
2023-04-16T14:37:54.191Z,64.89
2023-04-16T14:40:20.763Z,67.23
2023-04-16T14:42:47.282Z,68.77
2023-04-16T14:45:13.827Z,68.75
2023-04-16T14:47:40.361Z,67.66
2023-04-16T14:50:07.462Z,67.68
2023-04-16T14:52:33.961Z,66.33
2023-04-16T14:55:01.658Z,66.31
2023-04-16T14:57:28.182Z,65.20
2023-04-16T14:59:54.702Z,63.37
2023-04-16T15:02:21.520Z,62.11
2023-04-16T15:04:48.168Z,61.54
2023-04-16T15:07:14.680Z,61.73
2023-04-16T15:09:41.268Z,61.30
2023-04-16T15:12:07.813Z,61.16
2023-04-16T15:14:36.472Z,60.74
2023-04-16T15:17:03.067Z,59.97
2023-04-16T15:19:29.679Z,61.59
2023-04-16T15:21:56.259Z,61.04
2023-04-16T15:24:22.755Z,61.28
2023-04-16T15:26:49.358Z,60.48
2023-04-16T15:29:15.885Z,58.84
2023-04-16T15:31:42.382Z,57.96
2023-04-16T15:34:09.176Z,56.62
2023-04-16T15:36:35.916Z,58.36
2023-04-16T15:39:02.471Z,60.00
2023-04-16T15:41:29.268Z,61.67
2023-04-16T15:43:55.766Z,63.76
2023-04-16T15:46:22.356Z,64.58
2023-04-16T15:48:48.935Z,63.59
2023-04-16T15:51:15.581Z,63.40
2023-04-16T15:53:42.196Z,62.62
2023-04-16T15:56:08.750Z,63.63
2023-04-16T15:58:35.448Z,63.12
2023-04-16T16:01:01.992Z,63.45
2023-04-16T16:03:28.654Z,63.33
2023-04-16T16:05:55.798Z,62.74
2023-04-16T16:08:23.492Z,62.70
2023-04-16T16:10:50.037Z,62.69
2023-04-16T16:13:16.522Z,62.48
2023-04-16T16:15:46.174Z,62.13
2023-04-16T16:18:26.343Z,63.01
2023-04-16T16:20:57.235Z,62.41
2023-04-16T16:23:23.910Z,63.26
2023-04-16T16:25:53.462Z,62.50
2023-04-16T16:28:20.042Z,62.68
2023-04-16T16:30:48.748Z,62.16
2023-04-16T16:33:15.369Z,63.40
2023-04-16T16:35:44.863Z,65.14
2023-04-16T16:38:11.388Z,66.05
2023-04-16T16:40:38.726Z,65.90
2023-04-16T16:43:08.200Z,67.57
2023-04-16T16:45:34.849Z,67.54
2023-04-16T16:48:01.370Z,66.70
2023-04-16T16:50:34.896Z,67.18
2023-04-16T16:53:01.443Z,67.44
2023-04-16T16:55:28.053Z,66.67
2023-04-16T16:57:54.569Z,66.56
2023-04-16T17:00:21.368Z,67.16
2023-04-16T17:02:48.070Z,66.56
2023-04-16T17:05:14.713Z,65.62
2023-04-16T17:07:41.395Z,63.93
2023-04-16T17:10:09.141Z,66.34
2023-04-16T17:12:35.698Z,65.96
2023-04-16T17:15:02.434Z,66.53
2023-04-16T17:17:29.011Z,67.78
2023-04-16T17:19:55.566Z,69.84
2023-04-16T17:22:22.212Z,69.88
2023-04-16T17:24:48.697Z,68.79
2023-04-16T17:27:15.257Z,68.81
2023-04-16T17:29:41.732Z,69.60
2023-04-16T17:32:08.330Z,69.57
2023-04-16T17:34:34.914Z,69.46
2023-04-16T17:37:01.382Z,69.73
2023-04-16T17:39:27.868Z,68.29
2023-04-16T17:41:54.452Z,67.51
2023-04-16T17:44:21.009Z,66.94
2023-04-16T17:46:47.534Z,65.55
2023-04-16T17:49:14.025Z,64.95
2023-04-16T17:51:40.507Z,64.55
2023-04-16T17:54:06.974Z,64.00
2023-04-16T17:56:33.569Z,65.64
2023-04-16T17:59:00.173Z,67.69
2023-04-16T18:01:26.742Z,68.22
2023-04-16T18:03:53.500Z,70.38
2023-04-16T18:06:20.177Z,70.58
2023-04-16T18:08:46.664Z,70.87
2023-04-16T18:11:13.196Z,69.41
2023-04-16T18:13:39.715Z,67.56
2023-04-16T18:16:16.603Z,68.29
2023-04-16T18:18:43.920Z,68.54
2023-04-16T18:21:10.524Z,69.11
2023-04-16T18:23:37.068Z,70.71
2023-04-16T18:26:03.716Z,71.21
2023-04-16T18:28:30.260Z,71.89
2023-04-16T18:30:59.005Z,72.84
2023-04-16T18:33:52.298Z,73.58
2023-04-16T18:36:12.537Z,74.34
2023-04-16T18:38:49.448Z,74.89
2023-04-16T18:41:24.113Z,74.44
2023-04-16T18:43:50.682Z,75.39
2023-04-16T18:46:17.347Z,74.77
2023-04-16T18:48:44.203Z,75.44
2023-04-16T18:51:11.734Z,76.23
2023-04-16T18:53:38.712Z,77.44
2023-04-16T18:56:05.603Z,78.62
2023-04-16T18:58:32.157Z,79.34
2023-04-16T19:00:58.704Z,77.99
2023-04-16T19:03:25.790Z,77.26
2023-04-16T19:05:52.649Z,78.46
2023-04-16T19:08:19.591Z,79.29
2023-04-16T19:10:49.546Z,80.22
2023-04-16T19:13:16.595Z,78.77
2023-04-16T19:15:43.093Z,78.62
2023-04-16T19:18:09.629Z,78.00
2023-04-16T19:20:37.101Z,77.63
2023-04-16T19:23:04.569Z,78.21
2023-04-16T19:25:37.010Z,76.76
2023-04-16T19:28:03.829Z,76.89
2023-04-16T19:30:30.801Z,76.53
2023-04-16T19:32:57.535Z,77.50
2023-04-16T19:35:24.199Z,76.92
2023-04-16T19:37:51.125Z,76.28
2023-04-16T19:40:17.692Z,77.66
2023-04-16T19:42:44.166Z,77.44
2023-04-16T19:45:10.718Z,76.93
2023-04-16T19:47:37.256Z,77.58
2023-04-16T19:50:03.952Z,77.76
2023-04-16T19:52:30.467Z,77.66
2023-04-16T19:54:57.220Z,76.58
2023-04-16T19:57:23.715Z,76.04
2023-04-16T19:59:50.400Z,76.23
2023-04-16T20:02:16.973Z,75.23
2023-04-16T20:04:43.496Z,74.42
2023-04-16T20:07:10.139Z,74.30
2023-04-16T20:09:36.729Z,74.88
2023-04-16T20:12:03.215Z,75.21
2023-04-16T20:14:29.725Z,75.79
2023-04-16T20:16:56.246Z,77.33
2023-04-16T20:19:22.746Z,77.78
2023-04-16T20:21:49.257Z,77.98
2023-04-16T20:24:15.779Z,77.18
2023-04-16T20:26:42.276Z,76.20
2023-04-16T20:29:08.943Z,75.49
2023-04-16T20:31:35.486Z,75.26
2023-04-16T20:34:02.001Z,76.38
2023-04-16T20:36:28.539Z,76.39
2023-04-16T20:38:55.016Z,75.63
2023-04-16T20:41:21.821Z,75.74
2023-04-16T20:43:48.399Z,76.74
2023-04-16T20:46:15.104Z,76.01
2023-04-16T20:48:42.047Z,75.63
2023-04-16T20:51:08.558Z,76.42
2023-04-16T20:53:35.813Z,76.45
2023-04-16T20:56:02.795Z,76.70
2023-04-16T20:58:29.706Z,76.70
2023-04-16T21:00:57.519Z,77.00
2023-04-16T21:03:24.585Z,76.58
2023-04-16T21:05:52.890Z,76.26
2023-04-16T21:08:20.214Z,76.28
2023-04-16T21:10:47.163Z,76.74
2023-04-16T21:13:14.194Z,75.79
2023-04-16T21:15:42.679Z,76.44
2023-04-16T21:18:12.331Z,77.09
2023-04-16T21:20:39.198Z,78.14
2023-04-16T21:23:05.989Z,78.56
2023-04-16T21:25:32.556Z,78.99
2023-04-16T21:27:59.078Z,79.70
2023-04-16T21:30:26.006Z,79.71
2023-04-16T21:32:52.761Z,79.19
2023-04-16T21:35:19.604Z,79.98
2023-04-16T21:37:46.191Z,80.67
2023-04-16T21:40:12.870Z,81.32
2023-04-16T21:42:39.395Z,80.35
2023-04-16T21:45:12.004Z,80.46
2023-04-16T21:47:38.656Z,80.88
2023-04-16T21:50:05.731Z,81.29
2023-04-16T21:52:32.323Z,81.16
2023-04-16T21:55:02.306Z,81.35
2023-04-16T21:57:32.079Z,82.26
2023-04-16T21:59:58.612Z,82.24
2023-04-16T22:02:25.230Z,81.99
2023-04-16T22:04:51.803Z,81.65
2023-04-16T22:07:18.303Z,81.19
2023-04-16T22:09:44.910Z,80.20
2023-04-16T22:12:11.450Z,80.84
2023-04-16T22:14:43.969Z,80.61
2023-04-16T22:17:10.780Z,80.67
2023-04-16T22:19:37.366Z,80.52
2023-04-16T22:22:03.941Z,80.61
2023-04-16T22:24:30.506Z,80.99
2023-04-16T22:26:59.064Z,81.05
2023-04-16T22:29:25.607Z,80.42
2023-04-16T22:31:52.320Z,80.39
2023-04-16T22:34:18.900Z,80.12
2023-04-16T22:36:45.479Z,80.67
2023-04-16T22:39:12.245Z,79.92
2023-04-16T22:41:38.910Z,79.80
2023-04-16T22:44:05.488Z,80.55
2023-04-16T22:46:32.192Z,80.48
2023-04-16T22:48:58.844Z,80.04
2023-04-16T22:51:25.397Z,80.71
2023-04-16T22:53:52.091Z,80.31
2023-04-16T22:56:21.729Z,79.73
2023-04-16T22:58:48.265Z,79.82
2023-04-16T23:01:15.394Z,79.28
2023-04-16T23:03:42.052Z,80.54
2023-04-16T23:06:08.644Z,80.94
2023-04-16T23:08:35.733Z,80.66
2023-04-16T23:11:02.230Z,80.85
2023-04-16T23:13:28.872Z,81.21
2023-04-16T23:15:55.426Z,81.52
2023-04-16T23:18:22.141Z,81.15
2023-04-16T23:20:52.638Z,81.80
2023-04-16T23:23:19.389Z,81.91
2023-04-16T23:25:45.912Z,82.11
2023-04-16T23:28:12.410Z,83.34
2023-04-16T23:30:38.919Z,83.14
2023-04-16T23:33:05.562Z,82.94
2023-04-16T23:35:32.092Z,82.16
2023-04-16T23:37:58.888Z,82.02
2023-04-16T23:40:27.787Z,81.70
2023-04-16T23:42:54.445Z,81.25
2023-04-16T23:45:21.004Z,81.31
2023-04-16T23:47:47.718Z,82.54
2023-04-16T23:50:14.255Z,82.79
2023-04-16T23:52:40.815Z,83.53
2023-04-16T23:55:07.633Z,84.17
2023-04-16T23:57:34.134Z,84.90
